Time;durP1;ratioP1;P1;durP2;ratioP2;P2;SDS_P1;SDS_P2;PMS_P1;PMS_P2;Temp;Humidity;BMP_temperature;BMP_pressure;BME280_temperature;BME280_humidity;BME280_pressure;Samples;Min_cycle;Max_cycle;Signal;HPM_P1;HPM_P2
2021/08/17 00:00:37;;;;;;;10.20;4.20;;;;;;;24.23;48.97;101359.47;5059977;28;20045;-78
2021/08/17 00:03:02;;;;;;;8.70;4.18;;;;;;;24.27;49.11;101370.56;5059792;28;20048;-78
2021/08/17 00:05:28;;;;;;;10.73;4.13;;;;;;;24.25;49.25;101367.28;5058506;28;20044;-78
2021/08/17 00:07:55;;;;;;;9.07;3.58;;;;;;;24.21;49.21;101361.50;5057668;28;20045;-78
2021/08/17 00:10:20;;;;;;;11.05;4.10;;;;;;;24.11;49.29;101342.44;5058461;28;20111;-78
2021/08/17 00:12:46;;;;;;;7.18;3.58;;;;;;;24.23;49.16;101359.47;5056979;28;20519;-78
2021/08/17 00:15:12;;;;;;;11.23;3.88;;;;;;;24.11;49.34;101350.41;5062599;28;20037;-78
2021/08/17 00:17:37;;;;;;;8.93;4.07;;;;;;;24.19;49.17;101357.41;5057487;28;20464;-78
2021/08/17 00:20:04;;;;;;;7.97;3.10;;;;;;;24.11;49.22;101345.09;5062293;28;20052;-78
2021/08/17 00:22:30;;;;;;;7.15;3.67;;;;;;;24.14;49.17;101358.00;5055333;28;20064;-78
2021/08/17 00:24:55;;;;;;;7.78;4.07;;;;;;;24.04;49.22;101339.72;5059365;28;20413;-78
2021/08/17 00:27:21;;;;;;;8.05;3.45;;;;;;;24.10;49.30;101365.56;5059195;28;20045;-78
2021/08/17 00:29:47;;;;;;;8.48;3.47;;;;;;;24.09;49.23;101366.56;5058331;28;20055;-78
2021/08/17 00:32:17;;;;;;;7.45;4.18;;;;;;;24.11;49.51;101369.03;5041352;28;20029;-78
2021/08/17 00:34:42;;;;;;;5.70;3.53;;;;;;;24.10;49.37;101372.72;5056535;28;20561;-78
2021/08/17 00:37:08;;;;;;;10.10;4.13;;;;;;;23.85;49.37;101329.75;5056419;28;20055;-78
2021/08/17 00:39:35;;;;;;;10.02;4.13;;;;;;;24.03;49.52;101361.19;5056187;28;20044;-78
2021/08/17 00:42:03;;;;;;;8.80;3.97;;;;;;;24.07;49.48;101367.78;5057931;28;20067;-78
2021/08/17 00:44:29;;;;;;;7.70;3.70;;;;;;;24.06;49.40;101374.94;5054897;28;20048;-78
2021/08/17 00:46:55;;;;;;;7.18;3.70;;;;;;;24.06;49.38;101366.97;5059482;28;20033;-78
2021/08/17 00:49:22;;;;;;;10.50;4.20;;;;;;;23.94;49.49;101351.72;5038999;28;20083;-78
2021/08/17 00:51:55;;;;;;;8.95;3.63;;;;;;;23.99;49.49;101370.59;5070828;28;20103;-78
2021/08/17 00:54:21;;;;;;;5.65;3.55;;;;;;;23.93;49.67;101364.22;5069730;28;20083;-78
2021/08/17 00:56:48;;;;;;;7.05;3.25;;;;;;;24.01;49.48;101381.84;5061362;28;20892;-78
2021/08/17 00:59:15;;;;;;;6.72;4.15;;;;;;;24.01;49.50;101381.84;5034430;28;20049;-78
2021/08/17 01:01:41;;;;;;;7.05;3.10;;;;;;;23.97;49.47;101381.41;5041619;28;20040;-78
2021/08/17 01:04:10;;;;;;;8.52;3.70;;;;;;;23.97;49.68;101378.75;5038616;28;20045;-78
2021/08/17 01:06:37;;;;;;;7.10;3.88;;;;;;;23.98;49.71;101385.72;5037449;28;20126;-78
2021/08/17 01:09:03;;;;;;;7.72;3.40;;;;;;;23.86;49.63;101368.63;5036838;28;20036;-77
2021/08/17 01:11:29;;;;;;;7.80;3.78;;;;;;;23.96;49.55;101384.28;5037780;28;20076;-78
2021/08/17 01:13:54;;;;;;;9.90;3.92;;;;;;;23.94;49.73;101397.78;5040824;28;20102;-78
2021/08/17 01:16:21;;;;;;;7.97;3.55;;;;;;;23.96;49.45;101395.72;5043066;28;20052;-78
2021/08/17 01:18:47;;;;;;;10.05;3.67;;;;;;;23.94;49.62;101396.94;5046427;28;20033;-78
2021/08/17 01:21:13;;;;;;;6.72;3.20;;;;;;;23.91;49.75;101387.53;5042847;28;20036;-78
2021/08/17 01:23:39;;;;;;;6.57;3.33;;;;;;;23.89;49.74;101391.41;5040260;28;20057;-78
2021/08/17 01:26:05;;;;;;;9.02;3.85;;;;;;;23.92;49.68;101409.63;5042564;28;20501;-78
2021/08/17 01:28:30;;;;;;;5.10;3.05;;;;;;;23.91;49.78;101394.69;5043746;28;20048;-78
2021/08/17 01:31:04;;;;;;;7.43;3.45;;;;;;;23.91;49.64;101394.69;5047357;28;20076;-77
2021/08/17 01:33:30;;;;;;;6.45;3.40;;;;;;;23.85;49.70;101396.25;5046603;28;20107;-78
2021/08/17 01:35:56;;;;;;;5.07;2.92;;;;;;;23.85;49.79;101385.63;5040323;28;20037;-78
2021/08/17 01:38:23;;;;;;;5.50;3.00;;;;;;;23.85;49.77;101403.41;5042094;28;20029;-78
2021/08/17 01:40:48;;;;;;;6.03;3.42;;;;;;;23.84;49.90;101399.94;5041779;28;20087;-78
2021/08/17 01:43:16;;;;;;;7.72;3.33;;;;;;;23.81;49.83;101400.31;5044287;28;20041;-77
2021/08/17 01:45:43;;;;;;;9.52;3.72;;;;;;;23.80;49.61;101402.16;5039248;28;20037;-78
2021/08/17 01:48:11;;;;;;;7.68;3.42;;;;;;;23.54;49.85;101367.34;5040174;28;20047;-78
2021/08/17 01:50:37;;;;;;;7.10;3.03;;;;;;;23.82;49.95;101420.56;5050903;28;20428;-78
2021/08/17 01:53:03;;;;;;;5.10;3.03;;;;;;;23.78;49.97;101420.16;5060436;28;20720;-78
2021/08/17 01:55:29;;;;;;;7.25;2.83;;;;;;;23.81;50.01;101424.25;5040753;28;20044;-78
2021/08/17 01:57:54;;;;;;;6.85;3.00;;;;;;;23.78;49.80;101414.81;5043969;28;20609;-78
2021/08/17 02:00:20;;;;;;;6.30;3.30;;;;;;;23.69;49.87;101401.84;5052037;28;20045;-78
2021/08/17 02:02:45;;;;;;;6.65;3.22;;;;;;;23.75;49.97;101419.72;5065033;28;20482;-78
2021/08/17 02:05:11;;;;;;;9.77;4.35;;;;;;;23.75;50.00;101423.19;5041827;28;20048;-78
2021/08/17 02:07:37;;;;;;;5.85;2.83;;;;;;;23.73;49.93;101419.09;5062130;28;20140;-78
2021/08/17 02:10:05;;;;;;;9.63;3.30;;;;;;;23.75;50.05;101422.38;5063552;28;20029;-78
2021/08/17 02:12:31;;;;;;;6.35;3.50;;;;;;;23.72;50.15;101423.59;5058275;28;20537;-78
2021/08/17 02:14:56;;;;;;;5.85;3.10;;;;;;;23.69;49.80;101420.47;5060108;28;20033;-78
2021/08/17 02:17:22;;;;;;;5.95;3.30;;;;;;;23.63;50.00;101414.06;5060463;28;20028;-77
2021/08/17 02:19:47;;;;;;;6.80;3.35;;;;;;;23.70;50.11;101430.09;5046254;28;20041;-77
2021/08/17 02:22:13;;;;;;;6.30;2.70;;;;;;;23.70;50.15;101432.75;5061401;28;20512;-78
2021/08/17 02:24:39;;;;;;;8.40;3.28;;;;;;;23.69;50.02;101431.09;5063400;28;21066;-77
2021/08/17 02:27:04;;;;;;;7.88;3.45;;;;;;;23.64;50.05;101425.53;5061341;28;20040;-78
2021/08/17 02:29:30;;;;;;;8.60;3.33;;;;;;;23.68;50.29;101432.94;5040699;28;20036;-77
2021/08/17 02:31:55;;;;;;;6.65;3.03;;;;;;;23.64;49.84;101426.34;5063864;28;20052;-78
2021/08/17 02:34:21;;;;;;;7.15;3.25;;;;;;;23.63;49.89;101418.56;5059814;28;20470;-78
2021/08/17 02:36:46;;;;;;;4.30;2.60;;;;;;;23.67;49.92;101431.28;5059743;28;20048;-77
2021/08/17 02:39:12;;;;;;;4.43;2.60;;;;;;;23.66;50.18;101424.31;5058778;28;20032;-78
2021/08/17 02:41:37;;;;;;;6.18;3.08;;;;;;;23.64;49.99;101425.53;5060566;28;20049;-78
2021/08/17 02:44:03;;;;;;;6.35;2.97;;;;;;;23.60;50.07;101421.63;5059071;28;20436;-77
2021/08/17 02:46:29;;;;;;;6.93;2.85;;;;;;;23.64;50.07;101418.38;5061456;28;20089;-78
2021/08/17 02:48:54;;;;;;;5.35;3.15;;;;;;;23.61;50.02;101421.41;5065313;28;20482;-78
2021/08/17 02:51:20;;;;;;;6.18;3.05;;;;;;;23.26;50.19;101361.16;5045125;28;20053;-78
2021/08/17 02:53:45;;;;;;;4.95;2.92;;;;;;;23.58;50.02;101413.00;5064726;28;20047;-78
2021/08/17 02:56:11;;;;;;;5.90;3.15;;;;;;;23.56;50.21;101415.00;5059122;28;20032;-78
2021/08/17 02:58:37;;;;;;;5.30;2.83;;;;;;;23.41;50.04;101388.47;5059011;28;20120;-78
2021/08/17 03:01:03;;;;;;;5.45;3.05;;;;;;;23.51;49.83;101397.75;5061091;28;20040;-78
2021/08/17 03:03:28;;;;;;;5.97;3.25;;;;;;;23.59;50.08;101417.31;5058583;28;20508;-78
2021/08/17 03:05:54;;;;;;;7.00;3.10;;;;;;;23.58;50.29;101420.97;5059625;28;20044;-78
2021/08/17 03:08:19;;;;;;;6.03;3.15;;;;;;;23.58;50.09;101413.00;5059244;28;20048;-78
2021/08/17 03:10:45;;;;;;;5.60;2.83;;;;;;;23.50;50.07;101411.25;5042948;28;20048;-78
2021/08/17 03:13:10;;;;;;;7.18;3.67;;;;;;;23.34;50.07;101384.91;5061616;28;20036;-78
2021/08/17 03:15:37;;;;;;;5.00;2.95;;;;;;;23.28;50.31;101370.56;5040984;28;20044;-78
2021/08/17 03:18:05;;;;;;;4.18;2.75;;;;;;;23.54;50.43;101423.19;5059580;28;20113;-78
2021/08/17 03:20:32;;;;;;;6.63;3.20;;;;;;;23.51;50.40;101415.56;5058456;28;20032;-78
2021/08/17 03:22:58;;;;;;;6.88;3.17;;;;;;;23.47;50.09;101409.81;5058238;28;20045;-77
2021/08/17 03:25:27;;;;;;;5.13;2.60;;;;;;;23.41;50.27;101404.44;5059745;28;20062;-78
2021/08/17 03:27:54;;;;;;;7.75;3.08;;;;;;;23.33;50.24;101391.25;5059364;28;20427;-77
2021/08/17 03:30:21;;;;;;;7.85;3.10;;;;;;;23.48;50.04;101423.91;5057694;28;20037;-78
2021/08/17 03:32:47;;;;;;;6.47;2.80;;;;;;;23.52;50.26;101434.00;5058845;28;20486;-77
2021/08/17 03:35:13;;;;;;;6.85;3.17;;;;;;;23.48;50.13;101429.22;5063533;28;20115;-78
2021/08/17 03:37:40;;;;;;;4.82;2.80;;;;;;;23.42;50.17;101414.88;5062098;28;20395;-78
2021/08/17 03:40:12;;;;;;;5.72;3.35;;;;;;;23.44;50.18;101420.81;5062656;28;20036;-78
2021/08/17 03:42:38;;;;;;;7.60;3.63;;;;;;;23.46;50.12;101425.94;5059050;28;20561;-78
2021/08/17 03:45:05;;;;;;;6.70;3.05;;;;;;;23.45;50.20;101422.47;5059906;28;20119;-78
2021/08/17 03:47:31;;;;;;;5.05;2.88;;;;;;;23.43;50.50;101426.31;5061598;28;20024;-78
2021/08/17 03:49:56;;;;;;;4.47;2.78;;;;;;;23.43;50.34;101421.00;5060954;28;20094;-78
2021/08/17 03:52:23;;;;;;;6.28;3.30;;;;;;;23.44;49.97;101426.13;5062954;28;20028;-77
2021/08/17 03:54:48;;;;;;;6.28;2.90;;;;;;;23.36;50.34;101404.19;5056345;28;20036;-77
2021/08/17 03:57:14;;;;;;;5.13;3.33;;;;;;;23.43;50.07;101418.34;5057551;28;20048;-78
2021/08/17 03:59:39;;;;;;;4.95;2.65;;;;;;;23.39;50.07;101414.44;5061294;28;20048;-78
2021/08/17 04:02:05;;;;;;;4.88;2.78;;;;;;;23.42;50.22;101422.03;5041152;28;20048;-77
2021/08/17 04:04:30;;;;;;;5.20;2.55;;;;;;;23.26;50.04;101401.00;5058714;28;20045;-78
2021/08/17 04:06:56;;;;;;;4.95;3.03;;;;;;;23.29;50.32;101409.41;5051272;28;20048;-77
2021/08/17 04:09:21;;;;;;;8.07;3.10;;;;;;;23.41;50.26;101423.03;5051457;28;20048;-78
2021/08/17 04:11:47;;;;;;;4.25;2.35;;;;;;;23.21;50.05;101397.09;5059199;28;20037;-78
2021/08/17 04:14:12;;;;;;;4.78;2.30;;;;;;;23.41;50.09;101428.34;5041030;28;20032;-78
2021/08/17 04:16:38;;;;;;;5.95;2.95;;;;;;;23.37;50.17;101427.09;5040719;28;20060;-77
2021/08/17 04:19:03;;;;;;;6.78;3.15;;;;;;;23.39;50.15;101435.69;5059157;28;20033;-78
2021/08/17 04:21:29;;;;;;;5.13;2.85;;;;;;;23.37;50.53;101432.41;5056439;28;20513;-78
2021/08/17 04:23:57;;;;;;;4.88;2.60;;;;;;;23.36;50.35;101422.78;5055375;28;20057;-78
2021/08/17 04:26:23;;;;;;;7.43;2.92;;;;;;;23.27;50.41;101415.94;5059973;28;20418;-78
2021/08/17 04:28:48;;;;;;;5.68;2.78;;;;;;;23.33;49.96;101433.78;5056434;28;20044;-78
2021/08/17 04:31:14;;;;;;;6.15;2.92;;;;;;;23.37;50.41;101443.03;5039879;28;20044;-78
2021/08/17 04:33:39;;;;;;;6.03;2.80;;;;;;;23.35;50.47;101442.41;5058996;28;20039;-78
2021/08/17 04:36:05;;;;;;;4.15;2.65;;;;;;;23.36;50.34;101442.22;5056746;28;20581;-78
2021/08/17 04:38:30;;;;;;;5.00;2.60;;;;;;;23.33;50.38;101437.25;5056089;28;20044;-78
2021/08/17 04:40:56;;;;;;;5.75;2.70;;;;;;;23.32;50.43;101429.47;5059809;28;20040;-78
2021/08/17 04:43:21;;;;;;;5.60;2.88;;;;;;;23.15;50.09;101408.44;5059706;28;20041;-78
2021/08/17 04:45:49;;;;;;;5.03;2.30;;;;;;;23.33;50.47;101437.25;5066994;28;20055;-77
2021/08/17 04:48:14;;;;;;;4.30;2.45;;;;;;;23.33;50.33;101445.22;5060172;28;20040;-77
2021/08/17 04:50:40;;;;;;;5.68;2.50;;;;;;;23.30;50.51;101445.59;5059813;28;20067;-78
2021/08/17 04:53:05;;;;;;;5.00;2.50;;;;;;;23.31;50.20;101449.09;5060588;28;20363;-77
2021/08/17 04:55:31;;;;;;;6.57;2.80;;;;;;;23.32;50.10;101448.06;5058342;28;20520;-77
2021/08/17 04:57:59;;;;;;;3.85;2.35;;;;;;;23.32;50.27;101448.88;5040958;28;20056;-78
2021/08/17 05:00:27;;;;;;;5.05;2.90;;;;;;;23.28;50.08;101428.19;5056927;28;20101;-78
2021/08/17 05:02:53;;;;;;;6.32;2.63;;;;;;;23.29;50.02;101445.78;5059574;28;20033;-78
2021/08/17 05:05:19;;;;;;;3.90;2.35;;;;;;;23.29;50.46;101446.63;5060065;28;20044;-77
2021/08/17 05:07:45;;;;;;;3.78;2.63;;;;;;;23.31;50.11;101449.09;5062317;28;20675;-77
2021/08/17 05:10:14;;;;;;;4.78;2.40;;;;;;;23.31;49.93;101452.56;5057604;28;20029;-78
2021/08/17 05:12:41;;;;;;;6.07;2.60;;;;;;;23.33;50.24;101452.38;5057647;28;20048;-78
2021/08/17 05:15:08;;;;;;;5.22;2.88;;;;;;;23.28;50.16;101452.94;5040103;28;20085;-77
2021/08/17 05:17:34;;;;;;;5.68;2.50;;;;;;;23.31;50.21;101460.53;5059316;28;20545;-77
2021/08/17 05:20:00;;;;;;;4.78;2.53;;;;;;;23.31;50.16;101459.72;5058557;28;20370;-77
2021/08/17 05:22:26;;;;;;;6.47;2.55;;;;;;;23.27;50.31;101456.63;5053787;28;20037;-77
2021/08/17 05:24:51;;;;;;;7.10;2.90;;;;;;;23.27;49.85;101466.41;5057911;28;20036;-78
2021/08/17 05:27:17;;;;;;;6.32;2.70;;;;;;;23.29;49.98;101465.22;5055352;28;20036;-78
2021/08/17 05:29:42;;;;;;;5.47;2.42;;;;;;;23.27;50.03;101459.28;5056151;28;20037;-77
2021/08/17 05:32:08;;;;;;;4.97;2.53;;;;;;;23.27;50.19;101461.09;5058351;28;20068;-77
2021/08/17 05:34:34;;;;;;;5.68;2.17;;;;;;;23.25;50.05;101458.63;5059833;28;20032;-78
2021/08/17 05:37:00;;;;;;;5.20;2.33;;;;;;;23.30;49.83;101458.06;5056202;28;20063;-77
2021/08/17 05:39:26;;;;;;;6.78;2.88;;;;;;;23.11;50.17;101435.56;5061105;28;20029;-78
2021/08/17 05:41:51;;;;;;;5.63;2.60;;;;;;;23.27;50.06;101464.59;5041018;28;20540;-78
2021/08/17 05:44:17;;;;;;;6.32;2.60;;;;;;;23.26;49.89;101462.94;5039835;28;20040;-78
2021/08/17 05:46:43;;;;;;;3.78;2.53;;;;;;;23.20;49.98;101451.22;5058924;28;20398;-78
2021/08/17 05:49:09;;;;;;;3.97;2.60;;;;;;;23.26;50.21;101464.78;5060988;28;20497;-78
2021/08/17 05:51:35;;;;;;;4.32;2.30;;;;;;;23.25;50.32;101458.63;5068944;28;20031;-77
2021/08/17 05:54:00;;;;;;;3.60;2.40;;;;;;;23.27;50.02;101453.94;5066034;28;20029;-77
2021/08/17 05:56:26;;;;;;;5.80;2.70;;;;;;;23.17;50.03;101446.28;5064497;28;20057;-78
2021/08/17 05:58:51;;;;;;;6.28;2.60;;;;;;;23.27;50.00;101464.59;5056093;28;20048;-78
2021/08/17 06:01:17;;;;;;;5.57;2.60;;;;;;;23.17;50.36;101458.75;5067982;28;20402;-78
2021/08/17 06:03:42;;;;;;;5.88;2.63;;;;;;;23.16;50.11;101457.94;5060238;28;20037;-78
2021/08/17 06:06:08;;;;;;;4.60;2.40;;;;;;;23.23;49.99;101467.81;5050190;28;20487;-77
2021/08/17 06:08:33;;;;;;;5.25;2.50;;;;;;;23.19;49.91;101472.69;5068937;28;20047;-77
2021/08/17 06:10:59;;;;;;;5.00;2.67;;;;;;;23.25;50.10;101479.06;5057798;28;20044;-78
2021/08/17 06:13:26;;;;;;;6.32;2.90;;;;;;;23.23;50.28;101487.22;5043988;28;20100;-78
2021/08/17 06:15:52;;;;;;;4.82;2.50;;;;;;;23.21;50.23;101479.44;5063605;28;20041;-77
2021/08/17 06:18:18;;;;;;;4.95;2.40;;;;;;;23.22;50.23;101485.59;5036081;28;20052;-77
2021/08/17 06:20:43;;;;;;;5.20;2.60;;;;;;;23.20;50.14;101479.63;5058529;28;20043;-77
2021/08/17 06:23:09;;;;;;;4.05;2.20;;;;;;;23.20;50.29;101488.44;5062476;28;20052;-77
2021/08/17 06:25:34;;;;;;;6.10;2.88;;;;;;;23.13;50.17;101476.06;5061468;28;20032;-78
2021/08/17 06:28:01;;;;;;;4.75;2.50;;;;;;;22.98;50.16;101449.53;5067071;28;20401;-78
2021/08/17 06:30:26;;;;;;;7.20;2.90;;;;;;;23.19;50.09;101480.66;5042830;28;20036;-78
2021/08/17 06:32:54;;;;;;;3.88;2.40;;;;;;;23.19;50.38;101475.34;5062967;28;20033;-78
2021/08/17 06:35:20;;;;;;;4.70;2.42;;;;;;;23.16;50.29;101463.25;5057894;28;20037;-78
2021/08/17 06:37:45;;;;;;;5.20;2.97;;;;;;;23.19;50.09;101473.50;5060807;28;20040;-78
2021/08/17 06:40:11;;;;;;;4.55;2.35;;;;;;;23.20;50.13;101464.50;5060506;28;20036;-77
2021/08/17 06:42:37;;;;;;;6.78;2.50;;;;;;;23.18;50.17;101460.41;5057424;28;20037;-79
2021/08/17 06:45:04;;;;;;;4.75;2.45;;;;;;;23.20;50.01;101466.34;5056619;28;20135;-79
2021/08/17 06:47:29;;;;;;;6.38;2.50;;;;;;;23.21;50.17;101463.50;5062406;28;20040;-80
2021/08/17 06:49:55;;;;;;;4.47;2.75;;;;;;;23.18;49.94;101465.72;5042823;28;20040;-80
2021/08/17 06:52:20;;;;;;;9.07;3.00;;;;;;;23.18;49.95;101471.03;5062175;28;20044;-79
2021/08/17 06:54:46;;;;;;;4.22;2.55;;;;;;;23.20;50.08;101466.34;5061220;28;20040;-80
2021/08/17 06:57:11;;;;;;;5.65;2.67;;;;;;;23.20;50.11;101463.69;5059532;28;20033;-79
2021/08/17 06:59:37;;;;;;;4.65;2.60;;;;;;;23.20;49.97;101466.34;5059333;28;20057;-79
2021/08/17 07:02:03;;;;;;;6.82;3.22;;;;;;;23.19;50.04;101462.88;5059150;28;20115;-79
2021/08/17 07:04:28;;;;;;;7.57;2.92;;;;;;;23.17;49.95;101469.38;5042862;28;20028;-79
2021/08/17 07:06:54;;;;;;;4.85;2.88;;;;;;;23.17;49.72;101472.03;5059909;28;20559;-76
2021/08/17 07:09:19;;;;;;;5.85;2.50;;;;;;;23.20;49.77;101476.97;5024804;28;20044;-78
2021/08/17 07:11:45;;;;;;;6.82;3.10;;;;;;;23.23;49.65;101481.09;5059149;28;20395;-77
2021/08/17 07:14:10;;;;;;;3.58;2.50;;;;;;;23.25;49.65;101473.75;5057213;28;20382;-78
2021/08/17 07:16:36;;;;;;;6.45;3.42;;;;;;;23.26;49.32;101470.91;5068400;28;20130;-77
2021/08/17 07:19:03;;;;;;;5.07;2.75;;;;;;;23.24;49.35;101480.09;5067501;28;20043;-77
2021/08/17 07:21:28;;;;;;;6.38;3.03;;;;;;;23.26;49.23;101488.69;5068227;28;20566;-78
2021/08/17 07:23:54;;;;;;;8.23;3.20;;;;;;;23.25;48.94;101476.41;5065758;28;20045;-77
2021/08/17 07:26:19;;;;;;;5.97;2.90;;;;;;;23.26;48.88;101481.53;5065531;28;20047;-77
2021/08/17 07:28:45;;;;;;;8.45;3.17;;;;;;;23.31;48.96;101480.97;5048864;28;20067;-76
2021/08/17 07:31:10;;;;;;;6.45;3.63;;;;;;;23.37;49.12;101480.25;5067437;28;20028;-77
2021/08/17 07:33:36;;;;;;;6.90;3.17;;;;;;;23.39;48.99;101470.25;5065010;28;20110;-77
2021/08/17 07:36:02;;;;;;;6.68;3.38;;;;;;;23.37;49.33;101488.22;5065195;28;20060;-77
2021/08/17 07:38:28;;;;;;;5.82;3.45;;;;;;;23.38;49.29;101488.03;5062566;28;20341;-77
2021/08/17 07:40:53;;;;;;;4.78;3.08;;;;;;;23.38;49.19;101484.53;5058484;28;20029;-76
2021/08/17 07:43:19;;;;;;;7.50;3.60;;;;;;;23.42;49.03;101483.97;5060567;28;20260;-79
2021/08/17 07:45:45;;;;;;;4.60;2.97;;;;;;;23.42;49.00;101476.00;5058043;28;20045;-78
2021/08/17 07:48:10;;;;;;;7.63;3.28;;;;;;;23.44;48.91;101486.44;5057933;28;20048;-78
2021/08/17 07:50:38;;;;;;;6.75;3.25;;;;;;;23.35;49.22;101469.81;5059820;28;20040;-79
2021/08/17 07:53:08;;;;;;;7.65;3.30;;;;;;;23.42;49.24;101493.78;5065768;28;20094;-80
2021/08/17 07:55:34;;;;;;;;;;;;;;;23.45;49.26;101491.56;5065630;28;20044;-79
2021/08/17 07:57:59;;;;;;;8.93;4.00;;;;;;;23.47;49.26;101488.72;5067182;28;20239;-78
2021/08/17 08:00:25;;;;;;;8.90;3.60;;;;;;;23.38;49.51;101477.41;5062364;28;20525;-79
2021/08/17 08:02:51;;;;;;;6.45;3.45;;;;;;;23.48;49.29;101501.81;5042390;28;20041;-79
2021/08/17 08:05:16;;;;;;;4.88;3.00;;;;;;;23.32;49.21;101466.66;5059740;28;20094;-76
2021/08/17 08:07:42;;;;;;;6.88;3.33;;;;;;;23.47;49.35;101492.19;5072602;28;20040;-79
2021/08/17 08:10:08;;;;;;;7.78;4.22;;;;;;;23.48;49.26;101493.84;5042507;28;20044;-80
2021/08/17 08:12:33;;;;;;;6.47;3.55;;;;;;;23.49;49.11;101490.16;5057641;28;20407;-80
2021/08/17 08:14:59;;;;;;;6.50;3.70;;;;;;;23.50;49.01;101488.34;5057880;28;20044;-80
2021/08/17 08:17:24;;;;;;;6.95;3.50;;;;;;;23.38;49.25;101477.41;5037685;28;20037;-80
2021/08/17 08:19:50;;;;;;;6.35;3.25;;;;;;;23.42;49.07;101477.84;5060526;28;20116;-81
2021/08/17 08:22:15;;;;;;;8.75;4.03;;;;;;;23.49;49.06;101494.66;5057698;28;20045;-80
2021/08/17 08:24:41;;;;;;;5.10;3.17;;;;;;;23.42;49.40;101483.16;5064374;28;20051;-79
2021/08/17 08:27:07;;;;;;;7.00;3.60;;;;;;;23.47;49.43;101497.53;5042040;28;20029;-80
2021/08/17 08:29:33;;;;;;;6.88;3.85;;;;;;;23.36;49.16;101476.75;5064383;28;20033;-80
2021/08/17 08:31:59;;;;;;;7.50;4.38;;;;;;;23.47;49.29;101492.19;5066030;28;20044;-80
2021/08/17 08:34:24;;;;;;;7.35;3.58;;;;;;;23.46;49.31;101500.38;5064159;28;20085;-80
2021/08/17 08:36:50;;;;;;;11.00;4.10;;;;;;;23.50;49.36;101501.63;5064118;28;20044;-80
2021/08/17 08:39:17;;;;;;;6.80;4.10;;;;;;;23.48;49.40;101504.47;5046507;28;20045;-79
2021/08/17 08:41:45;;;;;;;9.15;4.45;;;;;;;23.47;49.27;101500.19;5065067;28;20036;-80
2021/08/17 08:44:12;;;;;;;5.38;3.70;;;;;;;23.46;49.38;101503.03;5065712;28;20040;-79
2021/08/17 08:46:37;;;;;;;7.90;4.07;;;;;;;23.49;49.27;101505.31;5064504;28;20036;-80
2021/08/17 08:49:04;;;;;;;6.35;3.53;;;;;;;23.48;49.43;101499.16;5062138;28;20871;-79
2021/08/17 08:51:30;;;;;;;6.13;3.60;;;;;;;23.50;49.40;101491.81;5059696;28;20123;-80
2021/08/17 08:53:56;;;;;;;7.10;3.72;;;;;;;23.48;49.47;101487.72;5063199;28;20044;-80
2021/08/17 08:56:21;;;;;;;6.82;4.20;;;;;;;23.52;49.44;101487.16;5065241;28;20102;-80
2021/08/17 08:58:47;;;;;;;6.97;3.70;;;;;;;23.54;49.22;101486.16;5063648;28;20048;-80
2021/08/17 09:01:21;;;;;;;6.90;4.35;;;;;;;23.49;49.06;101487.50;5059096;28;20117;-82
2021/08/17 09:03:51;;;;;;;7.57;3.90;;;;;;;23.57;49.20;101480.47;5055838;28;20841;-80
2021/08/17 09:06:31;;;;;;;8.10;4.38;;;;;;;23.49;49.21;101468.09;5053202;28;20061;-81
2021/08/17 09:09:13;;;;;;;6.72;3.78;;;;;;;23.58;49.45;101474.16;5061915;28;20052;-80
2021/08/17 09:11:44;;;;;;;6.50;3.92;;;;;;;23.59;49.35;101481.13;5061786;28;20087;-81
2021/08/17 09:14:30;;;;;;;5.93;3.88;;;;;;;23.60;49.17;101482.75;5063093;28;20031;-81
2021/08/17 09:16:57;;;;;;;10.50;5.03;;;;;;;23.57;49.35;101480.47;5046274;28;20549;-80
2021/08/17 09:19:34;;;;;;;8.05;3.72;;;;;;;23.57;49.16;101478.66;5067238;28;20039;-80
2021/08/17 09:22:04;;;;;;;5.75;3.58;;;;;;;23.46;49.20;101463.97;5064919;28;20112;-81
2021/08/17 09:24:34;;;;;;;6.57;3.70;;;;;;;23.59;49.30;101473.97;5058007;28;20037;-80
2021/08/17 09:27:03;;;;;;;8.40;4.30;;;;;;;23.52;49.23;101467.75;5060998;28;20057;-80
2021/08/17 09:29:38;;;;;;;7.13;4.20;;;;;;;23.50;49.57;101467.06;5063088;28;20103;-80
2021/08/17 09:32:21;;;;;;;7.95;4.25;;;;;;;23.60;49.29;101470.28;5062282;28;20127;-79
2021/08/17 09:34:49;;;;;;;6.82;3.70;;;;;;;23.63;49.16;101472.56;5063631;28;20793;-79
2021/08/17 09:37:17;;;;;;;7.70;4.05;;;;;;;23.62;49.42;101470.91;5067055;28;20112;-79
2021/08/17 09:39:47;;;;;;;7.50;4.03;;;;;;;23.62;49.33;101457.63;5066276;28;20024;-78
2021/08/17 09:42:22;;;;;;;7.93;5.22;;;;;;;23.57;49.12;101460.03;5070903;28;20489;-80
2021/08/17 09:45:13;;;;;;;7.90;4.35;;;;;;;23.61;49.13;101461.31;5065914;28;20482;-79
2021/08/17 09:47:42;;;;;;;7.93;4.35;;;;;;;23.66;49.24;101468.69;5069552;28;20036;-80
2021/08/17 09:50:37;;;;;;;9.68;4.55;;;;;;;23.64;49.17;101463.56;5069319;28;20064;-79
2021/08/17 09:53:17;;;;;;;9.13;4.47;;;;;;;23.64;48.92;101468.06;5066308;28;20532;-80
2021/08/17 09:55:46;;;;;;;8.13;4.60;;;;;;;23.65;49.02;101480.34;5028313;28;20064;-78
2021/08/17 09:58:17;;;;;;;8.20;4.72;;;;;;;23.64;49.06;101468.91;5068473;28;20028;-80
2021/08/17 10:00:43;;;;;;;8.63;4.85;;;;;;;23.61;49.10;101463.97;5068943;28;20095;-79
2021/08/17 10:03:09;;;;;;;8.40;5.18;;;;;;;23.63;48.96;101467.25;5065312;28;20085;-79
2021/08/17 10:05:37;;;;;;;7.78;4.60;;;;;;;23.51;49.13;101452.78;5052356;28;20048;-80
2021/08/17 10:08:04;;;;;;;9.73;4.53;;;;;;;23.62;48.95;101462.94;5064960;28;20041;-79
2021/08/17 10:10:30;;;;;;;7.40;4.38;;;;;;;23.62;48.93;101449.66;5065409;28;20490;-80
2021/08/17 10:12:55;;;;;;;7.90;4.88;;;;;;;23.65;49.01;101454.59;5067089;28;20086;-80
2021/08/17 10:15:22;;;;;;;9.23;5.55;;;;;;;23.66;48.83;101461.53;5068835;28;20039;-81
2021/08/17 10:17:48;;;;;;;8.10;5.10;;;;;;;23.64;48.96;101452.13;5050961;28;20017;-80
2021/08/17 10:20:16;;;;;;;8.75;5.60;;;;;;;23.65;49.10;101457.25;5065217;28;20060;-80
2021/08/17 10:22:43;;;;;;;8.95;5.55;;;;;;;23.58;49.17;101444.91;5060533;28;20029;-78
2021/08/17 10:25:17;;;;;;;11.63;5.93;;;;;;;23.64;48.94;101460.91;5065479;28;20115;-78
2021/08/17 10:27:44;;;;;;;12.20;6.45;;;;;;;23.57;49.04;101445.94;5067785;28;20036;-77
2021/08/17 10:30:17;;;;;;;8.95;5.45;;;;;;;23.60;49.25;101457.00;5070516;28;20048;-78
2021/08/17 10:32:54;;;;;;;10.30;5.78;;;;;;;23.66;49.07;101463.38;5067285;28;20051;-78
2021/08/17 10:35:51;;;;;;;8.55;5.47;;;;;;;23.68;48.81;101458.69;5043999;28;20047;-77
2021/08/17 10:38:16;;;;;;;9.40;5.43;;;;;;;23.65;48.98;101454.59;5037305;28;20033;-78
2021/08/17 10:40:51;;;;;;;9.63;5.60;;;;;;;23.65;48.99;101457.25;5063290;28;20111;-78
2021/08/17 10:43:31;;;;;;;10.88;6.00;;;;;;;23.67;48.97;101463.19;5056916;28;20040;-78
2021/08/17 10:46:09;;;;;;;9.30;5.60;;;;;;;23.61;49.17;101450.66;5060470;28;20037;-77
2021/08/17 10:48:48;;;;;;;10.98;5.45;;;;;;;23.67;49.14;101470.34;5062771;28;20418;-78
2021/08/17 10:51:20;;;;;;;12.30;6.50;;;;;;;23.64;49.04;101462.75;5066705;28;20047;-77
2021/08/17 10:53:47;;;;;;;12.00;6.18;;;;;;;23.68;48.90;101469.34;5063451;28;20043;-77
2021/08/17 10:56:23;;;;;;;9.02;5.85;;;;;;;23.69;48.79;101463.81;5063077;28;20047;-77
2021/08/17 10:58:50;;;;;;;11.50;6.00;;;;;;;23.62;48.74;101452.31;5064924;28;20032;-77
2021/08/17 11:01:31;;;;;;;10.35;6.05;;;;;;;23.68;48.72;101474.66;5062752;28;20482;-78
2021/08/17 11:03:57;;;;;;;11.75;6.68;;;;;;;23.67;48.69;101462.38;5062448;28;20384;-77
2021/08/17 11:06:53;;;;;;;10.82;6.30;;;;;;;23.66;48.71;101460.72;5059403;28;20123;-77
2021/08/17 11:09:21;;;;;;;11.00;6.05;;;;;;;23.55;48.85;101448.75;5057375;28;20037;-77
2021/08/17 11:11:54;;;;;;;9.05;5.70;;;;;;;23.65;48.88;101461.75;5058779;28;20509;-78
2021/08/17 11:14:22;;;;;;;11.35;6.40;;;;;;;23.43;48.65;101429.81;5056726;28;20025;-77
2021/08/17 11:16:53;;;;;;;10.07;6.45;;;;;;;23.67;48.68;101454.41;5054157;28;20139;-78
2021/08/17 11:19:20;;;;;;;13.15;7.05;;;;;;;23.66;48.87;101482.81;5059068;28;20525;-77
2021/08/17 11:21:52;;;;;;;11.82;6.57;;;;;;;23.60;48.86;101462.31;5061121;28;20046;-78
2021/08/17 11:24:32;;;;;;;10.88;6.32;;;;;;;23.30;48.92;101420.88;5061890;28;20047;-78